Sea Diva — CFN6260 — position and weather

sailwx.info

Track history (hours):
 
Tides and Currents Weather Stations Pressure Air Temp Water Temp Dewpoint Dewpoint Depression Visibility Wind Speed Wind Dir Waves Ship Positions

Sea Diva

Last reported at 2017-Nov-19 21:48 UTC. Time now 2017-Nov-21 21:15 UTC.
Position N 25°54' W 080°08'.

Length 25 m.

Type: Pleasure craft. MMSI: 316023173.

Date/timePositionNaut miles runAvg speedWind from/ knotsBaromVisibWave heightAir tempDewpointWater temp
2017-Nov-19 21:48N 25°54' W 080°08'0 0.0
2017-Nov-19 21:18N 25°54' W 080°08'0 0.0
2017-Nov-19 20:48N 25°54' W 080°08'0 0.0
2017-Nov-19 19:33N 25°54' W 080°08'0 0.0
2017-Nov-19 19:09N 25°54' W 080°08'0 0.0
2017-Nov-19 17:23N 25°54' W 080°08'0 0.0
2017-Nov-19 16:56N 25°54' W 080°08'0 0.0
2017-Nov-19 16:26N 25°54' W 080°08'0 0.0
2017-Nov-19 15:11N 25°54' W 080°08'0 0.0
2017-Nov-19 14:56N 25°54' W 080°08'0 0.0
2017-Nov-19 14:23N 25°54' W 080°08'0 0.0
2017-Nov-19 13:29N 25°54' W 080°08'0 0.0
2017-Nov-19 12:44N 25°54' W 080°08'0 0.0
2017-Nov-19 12:30N 25°54' W 080°08'0 0.0
2017-Nov-19 11:48N 25°54' W 080°08'0 0.0
2017-Nov-19 11:26N 25°54' W 080°08'0 0.0
2017-Nov-19 10:05N 25°54' W 080°08'0 0.0
2017-Nov-19 09:56N 25°54' W 080°08'0 0.0
2017-Nov-19 09:26N 25°54' W 080°08'0 0.0
2017-Nov-19 08:53N 25°54' W 080°08'0 0.0
2017-Nov-18 23:53N 25°54' W 080°08'0 0.0
2017-Nov-18 23:23N 25°54' W 080°08'0 0.0
2017-Nov-18 23:00N 25°54' W 080°08'612.6
2017-Nov-18 22:30N 25°47' W 080°07'5 9.1
2017-Nov-18 21:58N 25°46' W 080°12'1 0.6
2017-Nov-18 20:59N 25°47' W 080°12'0 0.0
2017-Nov-18 20:10N 25°47' W 080°12'0 0.0
2017-Nov-18 19:46N 25°47' W 080°12'0 0.2
2017-Nov-18 19:30N 25°47' W 080°12'1 1.7
2017-Nov-18 18:57N 25°46' W 080°11'4 9.1
2017-Nov-18 18:30N 25°46' W 080°07'814.0
2017-Nov-18 17:55N 25°54' W 080°08'0 0.2
2017-Nov-18 16:56N 25°54' W 080°08'0 0.0
2017-Nov-17 22:02N 25°54' W 080°08'0 0.0
2017-Nov-17 21:44N 25°54' W 080°08'0 0.0
2017-Nov-17 19:20N 25°54' W 080°08'0 0.0
2017-Nov-17 18:53N 25°54' W 080°08'0 0.0
2017-Nov-17 18:20N 25°54' W 080°08'0 0.0
2017-Nov-17 17:53N 25°54' W 080°08'0 0.0
2017-Nov-17 17:20N 25°54' W 080°08'0 0.0
2017-Nov-17 16:56N 25°54' W 080°08'0 0.0
2017-Nov-17 16:26N 25°54' W 080°08'0 0.0
2017-Nov-17 15:26N 25°54' W 080°08'0 0.0
2017-Nov-17 14:53N 25°54' W 080°08'0 0.0
2017-Nov-17 14:29N 25°54' W 080°08'0 0.0
2017-Nov-17 11:26N 25°54' W 080°08'0 0.0
2017-Nov-17 10:14N 25°54' W 080°08'0 0.0
2017-Nov-17 06:47N 25°54' W 080°08'0 0.0
2017-Nov-17 06:23N 25°54' W 080°08'0 0.0
2017-Nov-17 05:53N 25°54' W 080°08'0 0.0
2017-Nov-17 03:23N 25°54' W 080°08'0 0.0
2017-Nov-17 02:59N 25°54' W 080°08'0 0.0
2017-Nov-17 02:14N 25°54' W 080°08'0 0.0
2017-Nov-17 00:44N 25°54' W 080°08'0 0.0
2017-Nov-16 23:29N 25°54' W 080°08'0 0.0
2017-Nov-16 21:44N 25°54' W 080°08'0 0.0
2017-Nov-16 16:40N 25°54' W 080°08'0 0.0
2017-Nov-16 14:34N 25°54' W 080°08'0 0.0
2017-Nov-16 14:16N 25°54' W 080°08'0 0.0
2017-Nov-16 13:19N 25°54' W 080°08'0 0.0
2017-Nov-16 11:22N 25°54' W 080°08'0 0.0
2017-Nov-16 10:59N 25°54' W 080°08'0 0.0
2017-Nov-16 08:50N 25°54' W 080°08'0 0.0
2017-Nov-16 08:20N 25°54' W 080°08'0 0.0
2017-Nov-16 07:47N 25°54' W 080°08'0 0.0
2017-Nov-16 07:08N 25°54' W 080°08'0 0.0
2017-Nov-16 03:53N 25°54' W 080°08'0 0.0
2017-Nov-16 02:08N 25°54' W 080°08'0 0.0
2017-Nov-16 01:14N 25°54' W 080°08'0 0.0
2017-Nov-15 23:47N 25°54' W 080°08'0 0.0
2017-Nov-15 23:29N 25°54' W 080°08'0 0.0
2017-Nov-15 22:47N 25°54' W 080°08'0 0.0
2017-Nov-15 20:50N 25°54' W 080°08'0 0.0
2017-Nov-15 18:19N 25°54' W 080°08'0 0.0
2017-Nov-15 17:07N 25°54' W 080°08'0 0.0
2017-Nov-15 16:37N 25°54' W 080°08'0 0.0
2017-Nov-15 16:19N 25°54' W 080°08'0 0.0
2017-Nov-15 15:37N 25°54' W 080°08'0 0.0
2017-Nov-15 15:19N 25°54' W 080°08'0 0.0
2017-Nov-15 14:55N 25°54' W 080°08'0 0.0
2017-Nov-15 14:25N 25°54' W 080°08'0 0.0
2017-Nov-15 13:55N 25°54' W 080°08'0 0.0
2017-Nov-15 13:25N 25°54' W 080°08'0 0.0
2017-Nov-15 12:55N 25°54' W 080°08'0 0.0
2017-Nov-15 12:28N 25°54' W 080°08'0 0.0
2017-Nov-15 11:58N 25°54' W 080°08'0 0.0
2017-Nov-15 11:20N 25°54' W 080°08'0 0.0
2017-Nov-15 10:56N 25°54' W 080°08'0 0.0
2017-Nov-15 10:23N 25°54' W 080°08'0 0.0
2017-Nov-15 09:53N 25°54' W 080°08'0 0.0
2017-Nov-15 08:56N 25°54' W 080°08'0 0.0
2017-Nov-15 08:14N 25°54' W 080°08'0 0.0
2017-Nov-15 07:53N 25°54' W 080°08'0 0.0
2017-Nov-15 07:26N 25°54' W 080°08'0 0.0
2017-Nov-15 06:59N 25°54' W 080°08'0 0.0
2017-Nov-15 06:14N 25°54' W 080°08'0 0.0
2017-Nov-15 05:44N 25°54' W 080°08'0 0.0
2017-Nov-15 05:17N 25°54' W 080°08'0 0.0
2017-Nov-15 04:47N 25°54' W 080°08'0 0.0
2017-Nov-15 04:29N 25°54' W 080°08'0 0.0
2017-Nov-15 03:50N 25°54' W 080°08'0 0.0
2017-Nov-15 03:29N 25°54' W 080°08'0 0.0
2017-Nov-15 02:59N 25°54' W 080°08'0 0.0
2017-Nov-15 02:20N 25°54' W 080°08'0 0.0
2017-Nov-15 01:08N 25°54' W 080°08'0 0.0
2017-Nov-15 00:50N 25°54' W 080°08'0 0.0
2017-Nov-15 00:20N 25°54' W 080°08'0 0.0
2017-Nov-14 23:38N 25°54' W 080°08'0 0.0
2017-Nov-14 23:20N 25°54' W 080°08'0 0.0
2017-Nov-14 22:23N 25°54' W 080°08'0 0.0
2017-Nov-14 21:41N 25°54' W 080°08'0 0.0
2017-Nov-14 21:26N 25°54' W 080°08'0 0.0
2017-Nov-14 19:56N 25°54' W 080°08'0 0.0
2017-Nov-14 18:38N 25°54' W 080°08'0 0.0
2017-Nov-14 18:23N 25°54' W 080°08'0 0.0
2017-Nov-14 17:53N 25°54' W 080°08'0 0.0
2017-Nov-14 17:23N 25°54' W 080°08'0 0.0
2017-Nov-14 16:53N 25°54' W 080°08'0 0.0
2017-Nov-14 16:15N 25°54' W 080°08'0 0.0
2017-Nov-14 16:00N 25°54' W 080°08'0 0.0
2017-Nov-14 15:21N 25°54' W 080°08'0 0.0
2017-Nov-14 14:51N 25°54' W 080°08'0 0.0
2017-Nov-14 14:21N 25°54' W 080°08'0 0.0
2017-Nov-14 13:54N 25°54' W 080°08'0 0.0
2017-Nov-14 13:24N 25°54' W 080°08'0 0.0
2017-Nov-14 12:51N 25°54' W 080°08'0 0.0
2017-Nov-14 11:29N 25°54' W 080°08'0 0.0
2017-Nov-14 10:59N 25°54' W 080°08'0 0.0
2017-Nov-14 10:29N 25°54' W 080°08'0 0.0
2017-Nov-14 04:35N 25°54' W 080°08'0 0.0
2017-Nov-14 04:20N 25°54' W 080°08'0 0.0
2017-Nov-14 02:38N 25°54' W 080°08'0 0.0
2017-Nov-14 02:23N 25°54' W 080°08'0 0.0
2017-Nov-14 01:54N 25°54' W 080°08'0 0.0
2017-Nov-14 01:29N 25°54' W 080°08'0 0.0
2017-Nov-14 00:59N 25°54' W 080°08'0 0.0
2017-Nov-14 00:29N 25°54' W 080°08'0 0.0
2017-Nov-13 23:56N 25°54' W 080°08'0 0.0
2017-Nov-13 23:17N 25°54' W 080°08'0 0.0
2017-Nov-13 23:00N 25°54' W 080°08'0 0.0
2017-Nov-13 22:25N 25°54' W 080°08'0 0.0
2017-Nov-13 21:59N 25°54' W 080°08'0 0.0
2017-Nov-13 01:47N 25°54' W 080°08'0 0.0
2017-Nov-13 01:29N 25°54' W 080°08'0 0.0
2017-Nov-13 00:50N 25°54' W 080°08'0 0.0
2017-Nov-13 00:20N 25°54' W 080°08'0 0.0
2017-Nov-12 23:47N 25°54' W 080°08'0 0.0
2017-Nov-12 23:23N 25°54' W 080°08'0 0.0
2017-Nov-12 22:50N 25°54' W 080°08'0 0.0
2017-Nov-12 22:20N 25°54' W 080°08'0 0.0
2017-Nov-12 21:53N 25°54' W 080°08'0 0.0
2017-Nov-12 21:26N 25°54' W 080°08'0 0.0
2017-Nov-12 20:56N 25°54' W 080°08'0 0.0
2017-Nov-12 20:26N 25°54' W 080°08'0 0.0
2017-Nov-12 19:56N 25°54' W 080°08'0 0.0
2017-Nov-12 19:26N 25°54' W 080°08'0 0.0
2017-Nov-12 18:56N 25°54' W 080°08'0 0.0
2017-Nov-12 18:29N 25°54' W 080°08'0 0.0
2017-Nov-12 17:59N 25°54' W 080°08'0 0.0
2017-Nov-12 17:29N 25°54' W 080°08'0 0.0
2017-Nov-12 16:59N 25°54' W 080°08'0 0.0
2017-Nov-12 16:17N 25°54' W 080°08'0 0.0
2017-Nov-12 15:59N 25°54' W 080°08'0 0.0
2017-Nov-12 15:29N 25°54' W 080°08'0 0.0
2017-Nov-12 14:59N 25°54' W 080°08'0 0.0
2017-Nov-12 14:29N 25°54' W 080°08'0 0.0
2017-Nov-12 13:50N 25°54' W 080°08'0 0.0
2017-Nov-12 13:26N 25°54' W 080°08'0 0.0
2017-Nov-12 12:02N 25°54' W 080°08'0 0.2
2017-Nov-12 12:00N 25°54' W 080°08'0 0.0
2017-Nov-12 11:22N 25°54' W 080°08'0 0.0
2017-Nov-12 10:58N 25°54' W 080°08'0 0.0
2017-Nov-12 10:25N 25°54' W 080°08'0 0.0
2017-Nov-12 09:52N 25°54' W 080°08'0 0.0
2017-Nov-12 09:10N 25°54' W 080°08'0 0.0
2017-Nov-12 08:58N 25°54' W 080°08'0 0.0
2017-Nov-12 08:28N 25°54' W 080°08'0 0.0
2017-Nov-12 07:58N 25°54' W 080°08'0 0.0
2017-Nov-12 07:28N 25°54' W 080°08'0 0.0
2017-Nov-12 06:58N 25°54' W 080°08'0 0.0
2017-Nov-12 06:16N 25°54' W 080°08'0 0.0
2017-Nov-12 05:49N 25°54' W 080°08'0 0.0
2017-Nov-12 05:28N 25°54' W 080°08'0 0.0
2017-Nov-12 04:26N 25°54' W 080°08'0 0.0
2017-Nov-12 03:41N 25°54' W 080°08'0 0.0
2017-Nov-12 03:26N 25°54' W 080°08'0 0.0
2017-Nov-12 02:59N 25°54' W 080°08'0 0.0
2017-Nov-12 02:29N 25°54' W 080°08'0 0.0
2017-Nov-12 01:59N 25°54' W 080°08'0 0.0
2017-Nov-12 01:05N 25°54' W 080°08'0 0.0
2017-Nov-12 00:44N 25°54' W 080°08'0 0.0
2017-Nov-12 00:20N 25°54' W 080°08'0 0.0
2017-Nov-11 23:50N 25°54' W 080°08'0 0.0
2017-Nov-11 23:23N 25°54' W 080°08'0 0.0
2017-Nov-11 22:53N 25°54' W 080°08'0 0.0
2017-Nov-11 22:23N 25°54' W 080°08'0 0.0
2017-Nov-11 21:53N 25°54' W 080°08'0 0.0
2017-Nov-11 21:20N 25°54' W 080°08'0 0.0
2017-Nov-11 20:56N 25°54' W 080°08'0 0.0
2017-Nov-11 20:23N 25°54' W 080°08'0 0.0
2017-Nov-11 19:53N 25°54' W 080°08'0 0.0
2017-Nov-11 19:29N 25°54' W 080°08'0 0.0
2017-Nov-11 18:50N 25°54' W 080°08'0 0.0
2017-Nov-11 18:29N 25°54' W 080°08'0 0.0
2017-Nov-11 17:59N 25°54' W 080°08'0 0.0
2017-Nov-11 17:28N 25°54' W 080°08'0 0.0
2017-Nov-11 16:59N 25°54' W 080°08'0 0.0
2017-Nov-11 16:11N 25°54' W 080°08'0 0.0
2017-Nov-11 16:00N 25°54' W 080°08'0 0.0
2017-Nov-11 15:30N 25°54' W 080°08'0 0.0
2017-Nov-11 15:00N 25°54' W 080°08'0 0.0
2017-Nov-11 14:18N 25°54' W 080°08'0 0.0
2017-Nov-11 14:00N 25°54' W 080°08'0 0.0
2017-Nov-11 13:30N 25°54' W 080°08'0 0.0
2017-Nov-11 12:51N 25°54' W 080°08'0 0.0
2017-Nov-11 12:06N 25°54' W 080°08'0 0.0
2017-Nov-11 11:54N 25°54' W 080°08'0 0.0
2017-Nov-11 11:21N 25°54' W 080°08'0 0.0
2017-Nov-11 10:51N 25°54' W 080°08'0 0.0
2017-Nov-11 10:24N 25°54' W 080°08'0 0.0
2017-Nov-11 09:51N 25°54' W 080°08'0 0.0
2017-Nov-11 09:24N 25°54' W 080°08'0 0.0
2017-Nov-11 08:51N 25°54' W 080°08'0 0.0
2017-Nov-11 08:12N 25°54' W 080°08'0 0.0
2017-Nov-11 07:57N 25°54' W 080°08'0 0.0
2017-Nov-11 07:24N 25°54' W 080°08'0 0.0
2017-Nov-11 06:57N 25°54' W 080°08'0 0.0
2017-Nov-11 06:27N 25°54' W 080°08'0 0.0
2017-Nov-11 06:00N 25°54' W 080°08'0 0.0
2017-Nov-11 05:15N 25°54' W 080°08'0 0.0
2017-Nov-11 05:00N 25°54' W 080°08'0 0.0
2017-Nov-11 04:15N 25°54' W 080°08'0 0.0
2017-Nov-11 04:00N 25°54' W 080°08'0 0.0
2017-Nov-11 03:30N 25°54' W 080°08'0 0.0
2017-Nov-11 03:00N 25°54' W 080°08'0 0.0
2017-Nov-11 02:18N 25°54' W 080°08'0 0.0
2017-Nov-11 02:00N 25°54' W 080°08'0 0.0
2017-Nov-11 01:30N 25°54' W 080°08'0 0.0
2017-Nov-11 00:51N 25°54' W 080°08'0 0.0
2017-Nov-11 00:21N 25°54' W 080°08'0 0.0
2017-Nov-10 23:51N 25°54' W 080°08'0 0.0
2017-Nov-10 23:21N 25°54' W 080°08'0 0.0
2017-Nov-10 22:51N 25°54' W 080°08'0 0.0
2017-Nov-10 22:21N 25°54' W 080°08'0 0.0
2017-Nov-10 21:54N 25°54' W 080°08'0 0.0
2017-Nov-10 21:09N 25°54' W 080°08'0 0.0
2017-Nov-10 20:54N 25°54' W 080°08'0 0.0
2017-Nov-10 20:24N 25°54' W 080°08'0 0.0
2017-Nov-10 19:57N 25°54' W 080°08'0 0.0
2017-Nov-10 19:24N 25°54' W 080°08'0 0.0
2017-Nov-10 18:57N 25°54' W 080°08'0 0.0
2017-Nov-10 18:24N 25°54' W 080°08'0 0.0
2017-Nov-10 18:00N 25°54' W 080°08'0 0.0
2017-Nov-10 17:30N 25°54' W 080°08'0 0.0
2017-Nov-10 17:00N 25°54' W 080°08'0 0.0
2017-Nov-10 16:30N 25°54' W 080°08'0 0.0
2017-Nov-10 16:00N 25°54' W 080°08'0 0.0
2017-Nov-10 15:30N 25°54' W 080°08'0 0.0
2017-Nov-10 15:00N 25°54' W 080°08'0 0.0
2017-Nov-10 13:00N 25°54' W 080°08'0 0.0
2017-Nov-10 12:06N 25°54' W 080°08'0 0.0
2017-Nov-10 11:48N 25°54' W 080°08'0 0.0
2017-Nov-10 11:21N 25°54' W 080°08'0 0.0
2017-Nov-10 10:54N 25°54' W 080°08'0 0.0
2017-Nov-10 10:24N 25°54' W 080°08'0 0.0
2017-Nov-10 09:06N 25°54' W 080°08'0 0.0
2017-Nov-10 08:42N 25°54' W 080°08'0 0.0
2017-Nov-10 08:24N 25°54' W 080°08'0 0.0
2017-Nov-10 07:57N 25°54' W 080°08'0 0.0
2017-Nov-10 07:27N 25°54' W 080°08'0 0.0
2017-Nov-10 06:54N 25°54' W 080°08'0 0.0
2017-Nov-10 06:24N 25°54' W 080°08'0 0.0
2017-Nov-10 06:00N 25°54' W 080°08'0 0.0
2017-Nov-10 05:30N 25°54' W 080°08'0 0.0
2017-Nov-10 04:42N 25°54' W 080°08'0 0.0
2017-Nov-10 04:27N 25°54' W 080°08'0 0.0
2017-Nov-10 04:00N 25°54' W 080°08'0 0.0
2017-Nov-10 03:30N 25°54' W 080°08'0 0.0
2017-Nov-10 03:00N 25°54' W 080°08'0 0.0
2017-Nov-10 02:18N 25°54' W 080°08'0 0.0
2017-Nov-10 02:00N 25°54' W 080°08'0 0.0
2017-Nov-10 01:30N 25°54' W 080°08'0 0.0
2017-Nov-10 00:51N 25°54' W 080°08'0 0.0
2017-Nov-10 00:18N 25°54' W 080°08'0 0.0
2017-Nov-09 23:51N 25°54' W 080°08'0 0.0
2017-Nov-09 23:18N 25°54' W 080°08'0 0.0
2017-Nov-09 22:51N 25°54' W 080°08'0 0.0
2017-Nov-09 22:21N 25°54' W 080°08'0 0.0
2017-Nov-09 21:54N 25°54' W 080°08'  
Track history (hours):
 
Tides and Currents Weather Stations Pressure Air Temp Water Temp Dewpoint Dewpoint Depression Visibility Wind Speed Wind Dir Waves Ship Positions

Sea Diva

Last reported at 2017-Nov-19 21:48 UTC. Time now 2017-Nov-21 21:15 UTC.
Position N 25°54' W 080°08'.

Length 25 m.

Type: Pleasure craft. MMSI: 316023173.

Date/timePositionNaut miles runAvg speedWind from/ knotsBaromVisibWave heightAir tempDewpointWater temp
2017-Nov-19 21:48N 25°54' W 080°08'0 0.0
2017-Nov-19 21:18N 25°54' W 080°08'0 0.0
2017-Nov-19 20:48N 25°54' W 080°08'0 0.0
2017-Nov-19 19:33N 25°54' W 080°08'0 0.0
2017-Nov-19 19:09N 25°54' W 080°08'0 0.0
2017-Nov-19 17:23N 25°54' W 080°08'0 0.0
2017-Nov-19 16:56N 25°54' W 080°08'0 0.0
2017-Nov-19 16:26N 25°54' W 080°08'0 0.0
2017-Nov-19 15:11N 25°54' W 080°08'0 0.0
2017-Nov-19 14:56N 25°54' W 080°08'0 0.0
2017-Nov-19 14:23N 25°54' W 080°08'0 0.0
2017-Nov-19 13:29N 25°54' W 080°08'0 0.0
2017-Nov-19 12:44N 25°54' W 080°08'0 0.0
2017-Nov-19 12:30N 25°54' W 080°08'0 0.0
2017-Nov-19 11:48N 25°54' W 080°08'0 0.0
2017-Nov-19 11:26N 25°54' W 080°08'0 0.0
2017-Nov-19 10:05N 25°54' W 080°08'0 0.0
2017-Nov-19 09:56N 25°54' W 080°08'0 0.0
2017-Nov-19 09:26N 25°54' W 080°08'0 0.0
2017-Nov-19 08:53N 25°54' W 080°08'0 0.0
2017-Nov-18 23:53N 25°54' W 080°08'0 0.0
2017-Nov-18 23:23N 25°54' W 080°08'0 0.0
2017-Nov-18 23:00N 25°54' W 080°08'612.6
2017-Nov-18 22:30N 25°47' W 080°07'5 9.1
2017-Nov-18 21:58N 25°46' W 080°12'1 0.6
2017-Nov-18 20:59N 25°47' W 080°12'0 0.0
2017-Nov-18 20:10N 25°47' W 080°12'0 0.0
2017-Nov-18 19:46N 25°47' W 080°12'0 0.2
2017-Nov-18 19:30N 25°47' W 080°12'1 1.7
2017-Nov-18 18:57N 25°46' W 080°11'4 9.1
2017-Nov-18 18:30N 25°46' W 080°07'814.0
2017-Nov-18 17:55N 25°54' W 080°08'0 0.2
2017-Nov-18 16:56N 25°54' W 080°08'0 0.0
2017-Nov-17 22:02N 25°54' W 080°08'0 0.0
2017-Nov-17 21:44N 25°54' W 080°08'0 0.0
2017-Nov-17 19:20N 25°54' W 080°08'0 0.0
2017-Nov-17 18:53N 25°54' W 080°08'0 0.0
2017-Nov-17 18:20N 25°54' W 080°08'0 0.0
2017-Nov-17 17:53N 25°54' W 080°08'0 0.0
2017-Nov-17 17:20N 25°54' W 080°08'0 0.0
2017-Nov-17 16:56N 25°54' W 080°08'0 0.0
2017-Nov-17 16:26N 25°54' W 080°08'0 0.0
2017-Nov-17 15:26N 25°54' W 080°08'0 0.0
2017-Nov-17 14:53N 25°54' W 080°08'0 0.0
2017-Nov-17 14:29N 25°54' W 080°08'0 0.0
2017-Nov-17 11:26N 25°54' W 080°08'0 0.0
2017-Nov-17 10:14N 25°54' W 080°08'0 0.0
2017-Nov-17 06:47N 25°54' W 080°08'0 0.0
2017-Nov-17 06:23N 25°54' W 080°08'0 0.0
2017-Nov-17 05:53N 25°54' W 080°08'0 0.0
2017-Nov-17 03:23N 25°54' W 080°08'0 0.0
2017-Nov-17 02:59N 25°54' W 080°08'0 0.0
2017-Nov-17 02:14N 25°54' W 080°08'0 0.0
2017-Nov-17 00:44N 25°54' W 080°08'0 0.0
2017-Nov-16 23:29N 25°54' W 080°08'0 0.0
2017-Nov-16 21:44N 25°54' W 080°08'0 0.0
2017-Nov-16 16:40N 25°54' W 080°08'0 0.0
2017-Nov-16 14:34N 25°54' W 080°08'0 0.0
2017-Nov-16 14:16N 25°54' W 080°08'0 0.0
2017-Nov-16 13:19N 25°54' W 080°08'0 0.0
2017-Nov-16 11:22N 25°54' W 080°08'0 0.0
2017-Nov-16 10:59N 25°54' W 080°08'0 0.0
2017-Nov-16 08:50N 25°54' W 080°08'0 0.0
2017-Nov-16 08:20N 25°54' W 080°08'0 0.0
2017-Nov-16 07:47N 25°54' W 080°08'0 0.0
2017-Nov-16 07:08N 25°54' W 080°08'0 0.0
2017-Nov-16 03:53N 25°54' W 080°08'0 0.0
2017-Nov-16 02:08N 25°54' W 080°08'0 0.0
2017-Nov-16 01:14N 25°54' W 080°08'0 0.0
2017-Nov-15 23:47N 25°54' W 080°08'0 0.0
2017-Nov-15 23:29N 25°54' W 080°08'0 0.0
2017-Nov-15 22:47N 25°54' W 080°08'0 0.0
2017-Nov-15 20:50N 25°54' W 080°08'0 0.0
2017-Nov-15 18:19N 25°54' W 080°08'0 0.0
2017-Nov-15 17:07N 25°54' W 080°08'0 0.0
2017-Nov-15 16:37N 25°54' W 080°08'0 0.0
2017-Nov-15 16:19N 25°54' W 080°08'0 0.0
2017-Nov-15 15:37N 25°54' W 080°08'0 0.0
2017-Nov-15 15:19N 25°54' W 080°08'0 0.0
2017-Nov-15 14:55N 25°54' W 080°08'0 0.0
2017-Nov-15 14:25N 25°54' W 080°08'0 0.0
2017-Nov-15 13:55N 25°54' W 080°08'0 0.0
2017-Nov-15 13:25N 25°54' W 080°08'0 0.0
2017-Nov-15 12:55N 25°54' W 080°08'0 0.0
2017-Nov-15 12:28N 25°54' W 080°08'0 0.0
2017-Nov-15 11:58N 25°54' W 080°08'0 0.0
2017-Nov-15 11:20N 25°54' W 080°08'0 0.0
2017-Nov-15 10:56N 25°54' W 080°08'0 0.0
2017-Nov-15 10:23N 25°54' W 080°08'0 0.0
2017-Nov-15 09:53N 25°54' W 080°08'0 0.0
2017-Nov-15 08:56N 25°54' W 080°08'0 0.0
2017-Nov-15 08:14N 25°54' W 080°08'0 0.0
2017-Nov-15 07:53N 25°54' W 080°08'0 0.0
2017-Nov-15 07:26N 25°54' W 080°08'0 0.0
2017-Nov-15 06:59N 25°54' W 080°08'0 0.0
2017-Nov-15 06:14N 25°54' W 080°08'0 0.0
2017-Nov-15 05:44N 25°54' W 080°08'0 0.0
2017-Nov-15 05:17N 25°54' W 080°08'0 0.0
2017-Nov-15 04:47N 25°54' W 080°08'0 0.0
2017-Nov-15 04:29N 25°54' W 080°08'0 0.0
2017-Nov-15 03:50N 25°54' W 080°08'0 0.0
2017-Nov-15 03:29N 25°54' W 080°08'0 0.0
2017-Nov-15 02:59N 25°54' W 080°08'0 0.0
2017-Nov-15 02:20N 25°54' W 080°08'0 0.0
2017-Nov-15 01:08N 25°54' W 080°08'0 0.0
2017-Nov-15 00:50N 25°54' W 080°08'0 0.0
2017-Nov-15 00:20N 25°54' W 080°08'0 0.0
2017-Nov-14 23:38N 25°54' W 080°08'0 0.0
2017-Nov-14 23:20N 25°54' W 080°08'0 0.0
2017-Nov-14 22:23N 25°54' W 080°08'0 0.0
2017-Nov-14 21:41N 25°54' W 080°08'0 0.0
2017-Nov-14 21:26N 25°54' W 080°08'0 0.0
2017-Nov-14 19:56N 25°54' W 080°08'0 0.0
2017-Nov-14 18:38N 25°54' W 080°08'0 0.0
2017-Nov-14 18:23N 25°54' W 080°08'0 0.0
2017-Nov-14 17:53N 25°54' W 080°08'0 0.0
2017-Nov-14 17:23N 25°54' W 080°08'0 0.0
2017-Nov-14 16:53N 25°54' W 080°08'0 0.0
2017-Nov-14 16:15N 25°54' W 080°08'0 0.0
2017-Nov-14 16:00N 25°54' W 080°08'0 0.0
2017-Nov-14 15:21N 25°54' W 080°08'0 0.0
2017-Nov-14 14:51N 25°54' W 080°08'0 0.0
2017-Nov-14 14:21N 25°54' W 080°08'0 0.0
2017-Nov-14 13:54N 25°54' W 080°08'0 0.0
2017-Nov-14 13:24N 25°54' W 080°08'0 0.0
2017-Nov-14 12:51N 25°54' W 080°08'0 0.0
2017-Nov-14 11:29N 25°54' W 080°08'0 0.0
2017-Nov-14 10:59N 25°54' W 080°08'0 0.0
2017-Nov-14 10:29N 25°54' W 080°08'0 0.0
2017-Nov-14 04:35N 25°54' W 080°08'0 0.0
2017-Nov-14 04:20N 25°54' W 080°08'0 0.0
2017-Nov-14 02:38N 25°54' W 080°08'0 0.0
2017-Nov-14 02:23N 25°54' W 080°08'0 0.0
2017-Nov-14 01:54N 25°54' W 080°08'0 0.0
2017-Nov-14 01:29N 25°54' W 080°08'0 0.0
2017-Nov-14 00:59N 25°54' W 080°08'0 0.0
2017-Nov-14 00:29N 25°54' W 080°08'0 0.0
2017-Nov-13 23:56N 25°54' W 080°08'0 0.0
2017-Nov-13 23:17N 25°54' W 080°08'0 0.0
2017-Nov-13 23:00N 25°54' W 080°08'0 0.0
2017-Nov-13 22:25N 25°54' W 080°08'0 0.0
2017-Nov-13 21:59N 25°54' W 080°08'0 0.0
2017-Nov-13 01:47N 25°54' W 080°08'0 0.0
2017-Nov-13 01:29N 25°54' W 080°08'0 0.0
2017-Nov-13 00:50N 25°54' W 080°08'0 0.0
2017-Nov-13 00:20N 25°54' W 080°08'0 0.0
2017-Nov-12 23:47N 25°54' W 080°08'0 0.0
2017-Nov-12 23:23N 25°54' W 080°08'0 0.0
2017-Nov-12 22:50N 25°54' W 080°08'0 0.0
2017-Nov-12 22:20N 25°54' W 080°08'0 0.0
2017-Nov-12 21:53N 25°54' W 080°08'0 0.0
2017-Nov-12 21:26N 25°54' W 080°08'0 0.0
2017-Nov-12 20:56N 25°54' W 080°08'0 0.0
2017-Nov-12 20:26N 25°54' W 080°08'0 0.0
2017-Nov-12 19:56N 25°54' W 080°08'0 0.0
2017-Nov-12 19:26N 25°54' W 080°08'0 0.0
2017-Nov-12 18:56N 25°54' W 080°08'0 0.0
2017-Nov-12 18:29N 25°54' W 080°08'0 0.0
2017-Nov-12 17:59N 25°54' W 080°08'0 0.0
2017-Nov-12 17:29N 25°54' W 080°08'0 0.0
2017-Nov-12 16:59N 25°54' W 080°08'0 0.0
2017-Nov-12 16:17N 25°54' W 080°08'0 0.0
2017-Nov-12 15:59N 25°54' W 080°08'0 0.0
2017-Nov-12 15:29N 25°54' W 080°08'0 0.0
2017-Nov-12 14:59N 25°54' W 080°08'0 0.0
2017-Nov-12 14:29N 25°54' W 080°08'0 0.0
2017-Nov-12 13:50N 25°54' W 080°08'0 0.0
2017-Nov-12 13:26N 25°54' W 080°08'0 0.0
2017-Nov-12 12:02N 25°54' W 080°08'0 0.2
2017-Nov-12 12:00N 25°54' W 080°08'0 0.0
2017-Nov-12 11:22N 25°54' W 080°08'0 0.0
2017-Nov-12 10:58N 25°54' W 080°08'0 0.0
2017-Nov-12 10:25N 25°54' W 080°08'0 0.0
2017-Nov-12 09:52N 25°54' W 080°08'0 0.0
2017-Nov-12 09:10N 25°54' W 080°08'0 0.0
2017-Nov-12 08:58N 25°54' W 080°08'0 0.0
2017-Nov-12 08:28N 25°54' W 080°08'0 0.0
2017-Nov-12 07:58N 25°54' W 080°08'0 0.0
2017-Nov-12 07:28N 25°54' W 080°08'0 0.0
2017-Nov-12 06:58N 25°54' W 080°08'0 0.0
2017-Nov-12 06:16N 25°54' W 080°08'0 0.0
2017-Nov-12 05:49N 25°54' W 080°08'0 0.0
2017-Nov-12 05:28N 25°54' W 080°08'0 0.0
2017-Nov-12 04:26N 25°54' W 080°08'0 0.0
2017-Nov-12 03:41N 25°54' W 080°08'0 0.0
2017-Nov-12 03:26N 25°54' W 080°08'0 0.0
2017-Nov-12 02:59N 25°54' W 080°08'0 0.0
2017-Nov-12 02:29N 25°54' W 080°08'0 0.0
2017-Nov-12 01:59N 25°54' W 080°08'0 0.0
2017-Nov-12 01:05N 25°54' W 080°08'0 0.0
2017-Nov-12 00:44N 25°54' W 080°08'0 0.0
2017-Nov-12 00:20N 25°54' W 080°08'0 0.0
2017-Nov-11 23:50N 25°54' W 080°08'0 0.0
2017-Nov-11 23:23N 25°54' W 080°08'0 0.0
2017-Nov-11 22:53N 25°54' W 080°08'0 0.0
2017-Nov-11 22:23N 25°54' W 080°08'0 0.0
2017-Nov-11 21:53N 25°54' W 080°08'0 0.0
2017-Nov-11 21:20N 25°54' W 080°08'0 0.0
2017-Nov-11 20:56N 25°54' W 080°08'0 0.0
2017-Nov-11 20:23N 25°54' W 080°08'0 0.0
2017-Nov-11 19:53N 25°54' W 080°08'0 0.0
2017-Nov-11 19:29N 25°54' W 080°08'0 0.0
2017-Nov-11 18:50N 25°54' W 080°08'0 0.0
2017-Nov-11 18:29N 25°54' W 080°08'0 0.0
2017-Nov-11 17:59N 25°54' W 080°08'0 0.0
2017-Nov-11 17:28N 25°54' W 080°08'0 0.0
2017-Nov-11 16:59N 25°54' W 080°08'0 0.0
2017-Nov-11 16:11N 25°54' W 080°08'0 0.0
2017-Nov-11 16:00N 25°54' W 080°08'0 0.0
2017-Nov-11 15:30N 25°54' W 080°08'0 0.0
2017-Nov-11 15:00N 25°54' W 080°08'0 0.0
2017-Nov-11 14:18N 25°54' W 080°08'0 0.0
2017-Nov-11 14:00N 25°54' W 080°08'0 0.0
2017-Nov-11 13:30N 25°54' W 080°08'0 0.0
2017-Nov-11 12:51N 25°54' W 080°08'0 0.0
2017-Nov-11 12:06N 25°54' W 080°08'0 0.0
2017-Nov-11 11:54N 25°54' W 080°08'0 0.0
2017-Nov-11 11:21N 25°54' W 080°08'0 0.0
2017-Nov-11 10:51N 25°54' W 080°08'0 0.0
2017-Nov-11 10:24N 25°54' W 080°08'0 0.0
2017-Nov-11 09:51N 25°54' W 080°08'0 0.0
2017-Nov-11 09:24N 25°54' W 080°08'0 0.0
2017-Nov-11 08:51N 25°54' W 080°08'0 0.0
2017-Nov-11 08:12N 25°54' W 080°08'0 0.0
2017-Nov-11 07:57N 25°54' W 080°08'0 0.0
2017-Nov-11 07:24N 25°54' W 080°08'0 0.0
2017-Nov-11 06:57N 25°54' W 080°08'0 0.0
2017-Nov-11 06:27N 25°54' W 080°08'0 0.0
2017-Nov-11 06:00N 25°54' W 080°08'0 0.0
2017-Nov-11 05:15N 25°54' W 080°08'0 0.0
2017-Nov-11 05:00N 25°54' W 080°08'0 0.0
2017-Nov-11 04:15N 25°54' W 080°08'0 0.0
2017-Nov-11 04:00N 25°54' W 080°08'0 0.0
2017-Nov-11 03:30N 25°54' W 080°08'0 0.0
2017-Nov-11 03:00N 25°54' W 080°08'0 0.0
2017-Nov-11 02:18N 25°54' W 080°08'0 0.0
2017-Nov-11 02:00N 25°54' W 080°08'0 0.0
2017-Nov-11 01:30N 25°54' W 080°08'0 0.0
2017-Nov-11 00:51N 25°54' W 080°08'0 0.0
2017-Nov-11 00:21N 25°54' W 080°08'0 0.0
2017-Nov-10 23:51N 25°54' W 080°08'0 0.0
2017-Nov-10 23:21N 25°54' W 080°08'0 0.0
2017-Nov-10 22:51N 25°54' W 080°08'0 0.0
2017-Nov-10 22:21N 25°54' W 080°08'0 0.0
2017-Nov-10 21:54N 25°54' W 080°08'0 0.0
2017-Nov-10 21:09N 25°54' W 080°08'0 0.0
2017-Nov-10 20:54N 25°54' W 080°08'0 0.0
2017-Nov-10 20:24N 25°54' W 080°08'0 0.0
2017-Nov-10 19:57N 25°54' W 080°08'0 0.0
2017-Nov-10 19:24N 25°54' W 080°08'0 0.0
2017-Nov-10 18:57N 25°54' W 080°08'0 0.0
2017-Nov-10 18:24N 25°54' W 080°08'0 0.0
2017-Nov-10 18:00N 25°54' W 080°08'0 0.0
2017-Nov-10 17:30N 25°54' W 080°08'0 0.0
2017-Nov-10 17:00N 25°54' W 080°08'0 0.0
2017-Nov-10 16:30N 25°54' W 080°08'0 0.0
2017-Nov-10 16:00N 25°54' W 080°08'0 0.0
2017-Nov-10 15:30N 25°54' W 080°08'0 0.0
2017-Nov-10 15:00N 25°54' W 080°08'0 0.0
2017-Nov-10 13:00N 25°54' W 080°08'0 0.0
2017-Nov-10 12:06N 25°54' W 080°08'0 0.0
2017-Nov-10 11:48N 25°54' W 080°08'0 0.0
2017-Nov-10 11:21N 25°54' W 080°08'0 0.0
2017-Nov-10 10:54N 25°54' W 080°08'0 0.0
2017-Nov-10 10:24N 25°54' W 080°08'0 0.0
2017-Nov-10 09:06N 25°54' W 080°08'0 0.0
2017-Nov-10 08:42N 25°54' W 080°08'0 0.0
2017-Nov-10 08:24N 25°54' W 080°08'0 0.0
2017-Nov-10 07:57N 25°54' W 080°08'0 0.0
2017-Nov-10 07:27N 25°54' W 080°08'0 0.0
2017-Nov-10 06:54N 25°54' W 080°08'0 0.0
2017-Nov-10 06:24N 25°54' W 080°08'0 0.0
2017-Nov-10 06:00N 25°54' W 080°08'0 0.0
2017-Nov-10 05:30N 25°54' W 080°08'0 0.0
2017-Nov-10 04:42N 25°54' W 080°08'0 0.0
2017-Nov-10 04:27N 25°54' W 080°08'0 0.0
2017-Nov-10 04:00N 25°54' W 080°08'0 0.0
2017-Nov-10 03:30N 25°54' W 080°08'0 0.0
2017-Nov-10 03:00N 25°54' W 080°08'0 0.0
2017-Nov-10 02:18N 25°54' W 080°08'0 0.0
2017-Nov-10 02:00N 25°54' W 080°08'0 0.0
2017-Nov-10 01:30N 25°54' W 080°08'0 0.0
2017-Nov-10 00:51N 25°54' W 080°08'0 0.0
2017-Nov-10 00:18N 25°54' W 080°08'0 0.0
2017-Nov-09 23:51N 25°54' W 080°08'0 0.0
2017-Nov-09 23:18N 25°54' W 080°08'0 0.0
2017-Nov-09 22:51N 25°54' W 080°08'0 0.0
2017-Nov-09 22:21N 25°54' W 080°08'0 0.0
2017-Nov-09 21:54N 25°54' W 080°08'  

Dump ship's entire track history